Delhi, LA

5:30 AM CDT on March 25, 2017 (GMT -0500)
Parish Line Road | | Change Station

Elev 52 ft 32.39 °N, 91.56 °W | Updated 9 seconds ago

Rain
Rain
59.4 °F
Feels Like 59.4 °F
N
3.0
Wind Variable Wind from SSE

Today
High -- | Low -- °F
--% Chance of Precip.
Yesterday
High -- | Low -- °F
Precip. -- in
Pressure 30.03 in
Visibility 4.0 miles
Clouds Scattered Clouds 4900 ft
Overcast 7000 ft
Dew Point 59 °F
Humidity 98%
Rainfall 0.81 in
Snow Depth Not available.
7:02 AM 7:21 PM
Waning Crescent, 9% visible
METAR KTVR 250953Z AUTO VRB04KT 4SM VCTS RA BR SCT049 OVC070 15/14 A3001 RMK AO2 PK WND 26033/0909 LTG DSNT ALQDS RAB10 TSB14E50 SLP169 P0049 T01500144
Pressure 30.03 in
Visibility 4.0 miles
Clouds Scattered Clouds 4900 ft
Overcast 7000 ft
Dew Point 59 °F
Humidity 98%
Rainfall 0.81 in
Snow Depth Not available.
7:02 AM 7:21 PM
Waning Crescent, 9% visible
METAR KTVR 250953Z AUTO VRB04KT 4SM VCTS RA BR SCT049 OVC070 15/14 A3001 RMK AO2 PK WND 26033/0909 LTG DSNT ALQDS RAB10 TSB14E50 SLP169 P0049 T01500144

Get Severe Weather Alerts

Thanks for signing up!

Be on the lookout for a verification email in your inbox.

You'll start receiving the daily forecast at 8 AM.

×

10-Day Weather Forecast

Almanac

Astronomy

Mar. 25, 2017 Rise Set
Actual Time
Civil Twilight
Nautical Twilight
Astronomical Twilight
Moon
Length of Visible Light
Length of Day
Tomorrow will be .
, % of the Moon is Illuminated

Today's Extremes

State Highs State Lows

Community

WunderPhotos

Upload Photos

1,962,540 photos uploaded!

WunderBlog® & News

Nearby

Air Quality

  Air Quality AQ Index Pollutant
Not available.

Snow Depth

Station Depth Elevation

Earthquake Activity

City Distance Mag. Time & Date
Minimum magnitude displayed is 2.5.

Earthquake Activity

City Distance Mag. Time & Date
Minimum magnitude displayed is 2.5.

Coastal Water Temperatures

Place Temperature

Stations

Nearby Weather Stations

Station Location Temp. Windchill Dew Point Humidity Wind Precip. Elev Updated Type
                   

Watches & Warnings

There are currently no watches in effect.